Oakdale, NY (11769)

5:18 PM EST on November 25, 2014 (GMT -0500)
KNYSAYVI4 | Change Station
CLOSE
Current Station
Personal Weather Station
Location: Sayville, NY
Elevation: 36 ft
Nearby Weather Stations

Elev 36 ft 40.75 °N, 73.10 °W | Updated 8 seconds ago

Overcast
Overcast
50.0 °F
Feels Like 50.0 °F
N
0.0
Wind Variable Wind from West
Gusts 2.0 mph

Today
High -- | Low -- °F
--% Chance of Precip.
Yesterday
High -- | Low -- °F
Precip. -- in
6:50 AM 4:27 PM
Waxing Crescent, 14% visible
Pressure 30.01 in
Visibility 10.0 miles
Clouds Few 5500 ft
Mostly Cloudy 15000 ft
Overcast 25000 ft
Dew Point 41 °F
Humidity 72%
Rainfall 0.00 in
Snow Depth Not available.
UV 0 out of 12
Pollen .10 out of 12
Air Quality Not available.
Flu Activity Not available.
METAR KISP 252156Z 22004KT 10SM FEW055 BKN150 OVC250 11/M01 A3001 RMK AO2 SLP163 T01061006

More Conditions Fewer Conditions

Pressure 30.01 in
Visibility 10.0 miles
Clouds Few 5500 ft
Mostly Cloudy 15000 ft
Overcast 25000 ft
Dew Point 41 °F
Humidity 72%
Rainfall 0.00 in
Snow Depth Not available.
UV 0 out of 12
Pollen .10 out of 12
Air Quality Not available.
Flu Activity Not available.
METAR KISP 252156Z 22004KT 10SM FEW055 BKN150 OVC250 11/M01 A3001 RMK AO2 SLP163 T01061006

More Conditions Fewer Conditions

10-Day Weather Forecast

Almanac

Astronomy

Nov. 25, 2014 Rise Set
Actual Time
Civil Twilight
Nautical Twilight
Astronomical Twilight
Moon
Length of Visible Light
Length of Day
Tomorrow will be .
, % of the Moon is Illuminated

Today's Extremes

State Highs State Lows

Community

WunderPhotos

Upload Photos

1,773,608 photos uploaded!

WunderBlogs® & News

Nearby

Air Quality

  Air Quality AQ Index Pollutant
Not available.

Snow Depth

Station Depth Elevation

Earthquake Activity

City Distance Mag. Time & Date
Minimum magnitude displayed is 2.5.

Coastal Water Temperatures

Place Temperature

Nearby Weather Stations